Time;durP1;ratioP1;P1;durP2;ratioP2;P2;SDS_P1;SDS_P2;PMS_P1;PMS_P2;Temp;Humidity;BMP_temperature;BMP_pressure;BME280_temperature;BME280_humidity;BME280_pressure;Samples;Min_cycle;Max_cycle;Signal;HPM_P1;HPM_P2
2023/08/10 00:00:12;;;;;;;1.42;1.02;;;17.80;99.90;;;;;;4973324;28;20047;-80
2023/08/10 00:02:38;;;;;;;2.58;1.15;;;17.70;99.90;;;;;;4992301;28;20029;-81
2023/08/10 00:05:05;;;;;;;3.90;1.20;;;17.70;99.90;;;;;;4978774;28;20490;-80
2023/08/10 00:07:31;;;;;;;1.13;1.02;;;17.60;99.90;;;;;;4967908;28;20034;-81
2023/08/10 00:09:57;;;;;;;1.92;1.00;;;17.60;99.90;;;;;;4969303;28;20368;-80
2023/08/10 00:12:23;;;;;;;1.65;0.80;;;17.60;99.90;;;;;;4977835;28;20038;-79
2023/08/10 00:14:48;;;;;;;1.10;1.00;;;17.70;99.90;;;;;;4991156;28;20030;-78
2023/08/10 00:17:15;;;;;;;3.35;1.10;;;17.70;99.90;;;;;;4987117;28;20034;-81
2023/08/10 00:19:41;;;;;;;5.28;1.10;;;17.70;99.90;;;;;;4984382;28;20117;-81
2023/08/10 00:22:06;;;;;;;2.40;1.20;;;17.60;99.90;;;;;;4993298;28;20106;-81
2023/08/10 00:24:32;;;;;;;2.88;1.65;;;17.60;99.90;;;;;;4994405;28;20030;-81
2023/08/10 00:26:58;;;;;;;2.28;1.08;;;17.60;99.90;;;;;;4992859;28;20019;-81
2023/08/10 00:29:23;;;;;;;1.30;0.93;;;17.50;99.90;;;;;;4993516;28;20411;-81
2023/08/10 00:31:49;;;;;;;4.28;0.95;;;17.50;99.90;;;;;;4992929;28;20027;-78
2023/08/10 00:34:15;;;;;;;1.88;1.30;;;17.50;99.90;;;;;;4981825;28;20039;-79
2023/08/10 00:36:41;;;;;;;3.85;1.40;;;17.50;99.90;;;;;;4979699;28;20045;-83
2023/08/10 00:39:07;;;;;;;2.38;1.20;;;17.40;99.90;;;;;;4996690;28;20022;-81
2023/08/10 00:41:33;;;;;;;4.10;1.15;;;17.40;99.90;;;;;;4997177;28;20027;-80
2023/08/10 00:43:59;;;;;;;3.17;1.05;;;17.40;99.90;;;;;;4967015;28;20063;-82
2023/08/10 00:46:25;;;;;;;1.33;1.10;;;17.50;99.90;;;;;;4994392;28;20038;-80
2023/08/10 00:48:51;;;;;;;1.80;1.00;;;17.40;99.90;;;;;;4964646;28;20144;-81
2023/08/10 00:51:16;;;;;;;3.20;1.20;;;17.40;99.90;;;;;;4996991;28;20061;-80
2023/08/10 00:53:42;;;;;;;1.50;1.00;;;17.40;99.90;;;;;;4995841;28;20027;-79
2023/08/10 00:56:10;;;;;;;1.88;1.00;;;17.40;99.90;;;;;;4965403;28;20117;-81
2023/08/10 00:58:36;;;;;;;4.18;1.15;;;17.40;99.90;;;;;;4987366;28;20042;-81
2023/08/10 01:01:02;;;;;;;1.95;0.80;;;17.50;99.90;;;;;;4977467;28;20019;-80
2023/08/10 01:03:28;;;;;;;1.90;1.08;;;17.40;99.90;;;;;;4978014;28;20205;-81
2023/08/10 01:06:05;;;;;;;3.08;1.00;;;17.30;99.90;;;;;;4977483;28;20105;-81
2023/08/10 01:08:50;;;;;;;1.50;1.13;;;17.20;99.90;;;;;;4961047;28;20018;-82
2023/08/10 01:11:33;;;;;;;2.38;1.50;;;17.20;99.90;;;;;;4967696;28;20022;-82
2023/08/10 01:14:21;;;;;;;1.77;1.10;;;17.20;99.90;;;;;;4966367;28;20451;-83
2023/08/10 01:16:50;;;;;;;2.13;1.20;;;17.20;99.90;;;;;;4979687;28;20030;-82
2023/08/10 01:19:26;;;;;;;2.85;1.00;;;17.20;99.90;;;;;;4995830;28;20455;-81
2023/08/10 01:22:09;;;;;;;4.47;1.20;;;17.10;99.90;;;;;;4995644;28;20032;-79
2023/08/10 01:24:41;;;;;;;2.85;1.25;;;17.10;99.90;;;;;;4979897;28;20476;-80
2023/08/10 01:27:09;;;;;;;3.13;1.10;;;17.10;99.90;;;;;;4979686;28;20033;-80
2023/08/10 01:29:35;;;;;;;2.67;1.02;;;17.10;99.90;;;;;;4978084;28;20121;-81
2023/08/10 01:32:02;;;;;;;1.80;1.17;;;17.00;99.90;;;;;;4995458;28;20053;-81
2023/08/10 01:34:27;;;;;;;1.20;1.10;;;17.00;99.90;;;;;;4995750;28;20030;-79
2023/08/10 01:36:53;;;;;;;1.88;1.10;;;17.00;99.90;;;;;;4996209;28;20054;-78
2023/08/10 01:39:19;;;;;;;2.50;1.48;;;17.00;99.90;;;;;;4979528;28;20030;-79
2023/08/10 01:41:44;;;;;;;3.90;1.10;;;16.90;99.90;;;;;;4979581;28;20030;-79
2023/08/10 01:44:10;;;;;;;1.20;0.93;;;16.80;99.90;;;;;;4980214;28;20604;-82
2023/08/10 01:46:38;;;;;;;3.83;1.40;;;16.80;99.90;;;;;;4991792;28;20127;-81
2023/08/10 01:49:07;;;;;;;2.10;1.30;;;16.80;99.90;;;;;;4965047;28;20027;-80
2023/08/10 01:51:34;;;;;;;1.23;1.13;;;16.80;99.90;;;;;;4986956;28;20037;-79
2023/08/10 01:54:03;;;;;;;3.80;1.27;;;16.90;99.90;;;;;;4973007;28;20038;-80
2023/08/10 01:56:29;;;;;;;3.33;1.50;;;16.80;99.90;;;;;;4996355;28;20037;-80
2023/08/10 01:58:54;;;;;;;5.47;1.50;;;16.80;99.90;;;;;;4994471;28;20030;-81
2023/08/10 02:01:20;;;;;;;6.32;1.17;;;16.80;99.90;;;;;;4996588;28;20028;-82
2023/08/10 02:03:46;;;;;;;1.83;1.30;;;16.90;99.90;;;;;;4985132;28;20027;-81
2023/08/10 02:06:11;;;;;;;3.83;1.20;;;16.80;99.90;;;;;;4959458;28;20038;-82
2023/08/10 02:08:37;;;;;;;3.13;1.25;;;16.80;99.90;;;;;;4992679;28;20058;-81
2023/08/10 02:11:02;;;;;;;4.22;1.65;;;16.80;99.90;;;;;;4981573;28;20404;-81
2023/08/10 02:13:28;;;;;;;2.72;0.90;;;16.90;99.90;;;;;;4970516;28;20030;-83
2023/08/10 02:15:53;;;;;;;4.20;1.23;;;16.80;99.90;;;;;;4988524;28;20034;-82
2023/08/10 02:18:19;;;;;;;4.07;0.90;;;16.80;99.90;;;;;;4972241;28;20038;-81
2023/08/10 02:20:44;;;;;;;2.47;1.23;;;16.80;99.90;;;;;;4986072;28;20022;-82
2023/08/10 02:23:10;;;;;;;1.90;1.30;;;16.80;99.90;;;;;;4995459;28;20034;-80
2023/08/10 02:25:35;;;;;;;3.03;1.30;;;16.80;99.90;;;;;;4996522;28;20038;-81
2023/08/10 02:28:01;;;;;;;2.03;1.30;;;16.80;99.90;;;;;;4995920;28;20479;-81
2023/08/10 02:30:27;;;;;;;2.15;1.33;;;16.70;99.90;;;;;;4995963;28;20033;-80
2023/08/10 02:32:52;;;;;;;3.35;1.38;;;16.60;99.90;;;;;;4995068;28;20081;-78
2023/08/10 02:35:18;;;;;;;4.28;1.30;;;16.50;99.90;;;;;;4994576;28;20492;-80
2023/08/10 02:37:43;;;;;;;1.63;1.10;;;16.50;99.90;;;;;;4995968;28;20054;-80
2023/08/10 02:40:12;;;;;;;1.48;1.17;;;16.50;99.90;;;;;;4994028;28;20026;-80
2023/08/10 02:42:39;;;;;;;2.65;1.25;;;16.50;99.90;;;;;;4994802;28;20463;-80
2023/08/10 02:45:07;;;;;;;3.17;1.05;;;16.40;99.90;;;;;;4993842;28;20119;-80
2023/08/10 02:47:34;;;;;;;1.60;1.23;;;16.30;99.90;;;;;;4995968;28;20026;-80
2023/08/10 02:49:59;;;;;;;3.72;1.27;;;16.40;99.90;;;;;;4995336;28;20030;-80
2023/08/10 02:52:25;;;;;;;1.90;1.20;;;16.30;99.90;;;;;;4995780;28;20153;-80
2023/08/10 02:54:50;;;;;;;2.35;1.25;;;16.30;99.90;;;;;;4995266;28;20038;-81
2023/08/10 02:57:16;;;;;;;3.20;1.05;;;16.30;99.90;;;;;;4993073;28;20034;-81
2023/08/10 02:59:42;;;;;;;3.67;1.05;;;16.30;99.90;;;;;;4995551;28;20031;-81
2023/08/10 03:02:07;;;;;;;1.73;1.10;;;16.20;99.90;;;;;;4993919;28;20023;-80
2023/08/10 03:04:33;;;;;;;3.50;1.30;;;16.10;99.90;;;;;;4995190;28;20491;-81
2023/08/10 03:06:59;;;;;;;1.80;1.00;;;16.00;99.90;;;;;;4993967;28;20042;-81
2023/08/10 03:09:24;;;;;;;2.28;1.33;;;16.00;99.90;;;;;;4994573;28;20033;-82
2023/08/10 03:11:50;;;;;;;1.55;1.15;;;16.10;99.90;;;;;;4994814;28;20023;-82
2023/08/10 03:14:16;;;;;;;2.33;1.00;;;16.10;99.90;;;;;;4993783;28;20537;-81
2023/08/10 03:16:41;;;;;;;2.00;1.45;;;16.10;99.90;;;;;;4995362;28;20527;-81
2023/08/10 03:19:07;;;;;;;1.73;1.13;;;16.00;99.90;;;;;;4993611;28;20475;-79
2023/08/10 03:21:33;;;;;;;3.47;1.35;;;15.90;99.90;;;;;;4993897;28;20384;-80
2023/08/10 03:23:58;;;;;;;2.13;1.50;;;15.90;99.90;;;;;;4993424;28;20038;-79
2023/08/10 03:26:24;;;;;;;1.58;1.33;;;15.90;99.90;;;;;;4993875;28;20435;-81
2023/08/10 03:28:49;;;;;;;1.33;1.20;;;15.90;99.90;;;;;;4994927;28;20061;-80
2023/08/10 03:31:15;;;;;;;2.13;1.40;;;15.80;99.90;;;;;;4994708;28;20075;-80
2023/08/10 03:33:41;;;;;;;5.43;1.30;;;15.80;99.90;;;;;;4993805;28;20030;-81
2023/08/10 03:36:07;;;;;;;1.80;1.70;;;15.90;99.90;;;;;;4993231;28;20050;-80
2023/08/10 03:38:33;;;;;;;2.80;1.30;;;15.90;99.90;;;;;;4993637;28;20030;-80
2023/08/10 03:40:59;;;;;;;2.60;1.23;;;15.80;99.90;;;;;;4993999;28;20030;-79
2023/08/10 03:43:24;;;;;;;2.75;1.50;;;15.80;99.90;;;;;;4994637;28;20506;-80
2023/08/10 03:45:50;;;;;;;3.45;1.40;;;15.70;99.90;;;;;;4994958;28;20036;-80
2023/08/10 03:48:15;;;;;;;6.00;1.60;;;15.70;99.90;;;;;;4993330;28;20084;-80
2023/08/10 03:50:41;;;;;;;1.65;1.45;;;15.70;99.90;;;;;;4994935;28;20081;-80
2023/08/10 03:53:07;;;;;;;2.58;1.42;;;15.70;99.90;;;;;;4993695;28;20499;-80
2023/08/10 03:55:32;;;;;;;1.83;1.38;;;15.60;99.90;;;;;;4994848;28;20096;-81
2023/08/10 03:57:58;;;;;;;2.30;1.30;;;15.70;99.90;;;;;;4994632;28;20055;-79
2023/08/10 04:00:24;;;;;;;2.97;1.50;;;15.70;99.90;;;;;;4993335;28;20023;-81
2023/08/10 04:02:50;;;;;;;3.80;1.77;;;15.70;99.90;;;;;;4993825;28;20022;-79
2023/08/10 04:05:16;;;;;;;1.40;1.30;;;15.60;99.90;;;;;;4993116;28;20045;-79
2023/08/10 04:07:41;;;;;;;3.13;1.45;;;15.60;99.90;;;;;;4992879;28;20026;-79
2023/08/10 04:10:09;;;;;;;2.10;1.40;;;15.60;99.90;;;;;;4994170;28;20037;-79
2023/08/10 04:12:36;;;;;;;4.53;1.70;;;15.60;99.90;;;;;;4994030;28;20026;-80
2023/08/10 04:15:03;;;;;;;1.65;1.25;;;15.60;99.90;;;;;;4992933;28;20026;-79
2023/08/10 04:17:29;;;;;;;3.72;1.63;;;15.50;99.90;;;;;;4993609;28;20066;-79
2023/08/10 04:19:56;;;;;;;2.83;1.40;;;15.60;99.90;;;;;;4993525;28;20026;-79
2023/08/10 04:22:23;;;;;;;2.17;1.58;;;15.60;99.90;;;;;;4993209;28;20026;-80
2023/08/10 04:24:49;;;;;;;2.83;1.33;;;15.60;99.90;;;;;;4993852;28;20068;-80
2023/08/10 04:27:16;;;;;;;2.72;1.25;;;15.60;99.90;;;;;;4993974;28;20146;-80
2023/08/10 04:29:44;;;;;;;1.90;1.45;;;15.60;99.90;;;;;;4993847;28;20081;-80
2023/08/10 04:32:10;;;;;;;2.10;1.60;;;15.60;99.90;;;;;;4993835;28;20026;-80
2023/08/10 04:34:36;;;;;;;2.90;1.45;;;15.60;99.90;;;;;;4993222;28;20035;-80
2023/08/10 04:37:02;;;;;;;1.50;1.15;;;15.60;99.90;;;;;;4993563;28;20486;-78
2023/08/10 04:39:28;;;;;;;1.73;1.20;;;15.50;99.90;;;;;;4994533;28;20027;-81
2023/08/10 04:41:54;;;;;;;1.88;1.20;;;15.50;99.90;;;;;;4993202;28;20093;-81
2023/08/10 04:44:19;;;;;;;1.65;1.20;;;15.50;99.90;;;;;;4993791;28;20510;-81
2023/08/10 04:46:45;;;;;;;2.33;1.40;;;15.50;99.90;;;;;;4993576;28;20033;-81
2023/08/10 04:49:11;;;;;;;5.43;1.70;;;15.50;99.90;;;;;;4993814;28;20498;-80
2023/08/10 04:51:36;;;;;;;2.47;1.23;;;15.50;99.90;;;;;;4993508;28;20037;-82
2023/08/10 04:54:02;;;;;;;3.58;1.20;;;15.40;99.90;;;;;;4994168;28;20030;-78
2023/08/10 04:56:27;;;;;;;1.50;1.40;;;15.50;99.90;;;;;;4993572;28;20031;-81
2023/08/10 04:58:53;;;;;;;2.22;1.48;;;15.50;99.90;;;;;;4994429;28;20097;-81
2023/08/10 05:01:19;;;;;;;2.13;1.40;;;15.50;99.90;;;;;;4993660;28;20036;-81
2023/08/10 05:03:44;;;;;;;3.17;1.23;;;15.60;99.90;;;;;;4994340;28;20031;-81
2023/08/10 05:06:10;;;;;;;1.98;1.50;;;15.60;99.90;;;;;;4992301;28;20034;-81
2023/08/10 05:08:35;;;;;;;3.05;1.42;;;15.70;99.90;;;;;;4993565;28;20027;-80
2023/08/10 05:11:01;;;;;;;3.47;1.30;;;15.80;99.90;;;;;;4993810;28;20033;-79
2023/08/10 05:13:26;;;;;;;2.95;1.38;;;15.80;99.90;;;;;;4992727;28;20033;-80
2023/08/10 05:15:52;;;;;;;3.50;1.63;;;15.90;99.90;;;;;;4992992;28;20423;-80
2023/08/10 05:18:21;;;;;;;2.97;1.40;;;15.90;99.90;;;;;;4992375;28;20031;-79
2023/08/10 05:20:47;;;;;;;4.32;1.58;;;15.90;99.90;;;;;;4995704;28;20036;-79
2023/08/10 05:23:12;;;;;;;4.50;1.33;;;16.00;99.90;;;;;;4996582;28;20026;-79
2023/08/10 05:25:38;;;;;;;5.15;1.42;;;16.00;99.90;;;;;;4996381;28;20087;-79
2023/08/10 05:28:04;;;;;;;3.15;1.48;;;16.00;99.90;;;;;;4995736;28;20027;-78
2023/08/10 05:30:30;;;;;;;3.55;1.35;;;16.00;99.90;;;;;;4995913;28;20026;-79
2023/08/10 05:32:55;;;;;;;2.08;1.30;;;16.00;99.90;;;;;;4997561;28;20029;-79
2023/08/10 05:35:22;;;;;;;3.22;1.73;;;16.00;99.90;;;;;;4995425;28;20054;-80
2023/08/10 05:37:47;;;;;;;2.65;1.65;;;16.10;99.90;;;;;;4997344;28;20522;-80
2023/08/10 05:40:13;;;;;;;2.00;1.20;;;16.10;99.90;;;;;;4995428;28;20027;-79
2023/08/10 05:42:40;;;;;;;3.22;1.45;;;16.00;99.90;;;;;;4995622;28;20026;-80
2023/08/10 05:45:09;;;;;;;2.65;1.65;;;16.00;99.90;;;;;;4994883;28;20054;-79
2023/08/10 05:47:36;;;;;;;3.72;1.80;;;16.00;99.90;;;;;;4995655;28;20379;-79
2023/08/10 05:50:03;;;;;;;2.75;1.30;;;16.00;99.90;;;;;;4995919;28;20053;-79
2023/08/10 05:52:29;;;;;;;3.92;1.58;;;15.80;99.90;;;;;;4996682;28;20175;-79
2023/08/10 05:54:55;;;;;;;4.47;1.60;;;15.80;99.90;;;;;;4996849;28;20041;-80
2023/08/10 05:57:21;;;;;;;2.63;1.40;;;15.80;99.90;;;;;;4995362;28;20113;-79
2023/08/10 05:59:46;;;;;;;2.35;1.55;;;15.90;99.90;;;;;;4995966;28;20476;-80
2023/08/10 06:02:12;;;;;;;2.38;1.45;;;15.80;99.90;;;;;;4995379;28;20026;-80
2023/08/10 06:04:41;;;;;;;2.47;1.33;;;15.90;99.90;;;;;;4996615;28;20392;-80
2023/08/10 06:07:07;;;;;;;6.93;1.70;;;15.90;99.90;;;;;;4995476;28;20080;-78
2023/08/10 06:09:33;;;;;;;2.60;1.70;;;15.90;99.90;;;;;;4995417;28;20023;-80
2023/08/10 06:11:59;;;;;;;3.25;1.42;;;16.00;99.90;;;;;;4995656;28;20498;-79
2023/08/10 06:14:25;;;;;;;3.53;1.35;;;16.00;99.90;;;;;;4994684;28;20026;-81
2023/08/10 06:16:50;;;;;;;1.90;1.67;;;16.00;99.90;;;;;;4996584;28;20088;-80
2023/08/10 06:19:16;;;;;;;2.50;1.60;;;16.10;99.90;;;;;;4995822;28;20028;-80
2023/08/10 06:21:42;;;;;;;3.78;1.77;;;16.00;99.90;;;;;;4995454;28;20030;-80
2023/08/10 06:24:09;;;;;;;3.40;1.65;;;16.10;99.90;;;;;;4994794;28;20030;-78
2023/08/10 06:26:34;;;;;;;3.05;1.58;;;16.10;99.90;;;;;;4993573;28;20057;-80
2023/08/10 06:29:02;;;;;;;2.63;1.63;;;16.20;99.90;;;;;;4975767;28;20033;-80
2023/08/10 06:31:28;;;;;;;2.40;1.63;;;16.20;99.90;;;;;;4975869;28;20019;-79
2023/08/10 06:33:53;;;;;;;2.20;1.30;;;16.20;99.90;;;;;;4975309;28;20380;-80
2023/08/10 06:36:19;;;;;;;2.40;1.80;;;16.30;99.90;;;;;;4974415;28;20074;-79
2023/08/10 06:38:45;;;;;;;3.17;1.38;;;16.40;99.90;;;;;;4976755;28;20022;-79
2023/08/10 06:41:10;;;;;;;2.40;1.45;;;16.40;99.90;;;;;;4974979;28;20037;-79
2023/08/10 06:43:36;;;;;;;2.72;1.60;;;16.40;99.90;;;;;;4976214;28;20521;-80
2023/08/10 06:46:02;;;;;;;2.80;2.05;;;16.40;99.90;;;;;;4975562;28;20042;-80
2023/08/10 06:48:28;;;;;;;3.63;1.90;;;16.50;99.90;;;;;;4974539;28;20507;-80
2023/08/10 06:50:53;;;;;;;4.30;1.80;;;16.50;99.90;;;;;;4982835;28;20030;-80
2023/08/10 06:53:19;;;;;;;2.20;1.73;;;16.50;99.90;;;;;;4994999;28;20030;-82
2023/08/10 06:55:45;;;;;;;4.43;1.80;;;16.50;99.90;;;;;;4994245;28;20038;-82
2023/08/10 06:58:12;;;;;;;5.28;2.00;;;16.50;99.90;;;;;;4994188;28;20093;-80
2023/08/10 07:00:38;;;;;;;5.88;1.92;;;16.60;99.90;;;;;;4995486;28;20026;-81
2023/08/10 07:03:06;;;;;;;3.47;2.00;;;16.60;99.90;;;;;;4995288;28;20026;-81
2023/08/10 07:05:36;;;;;;;2.42;1.65;;;16.60;99.90;;;;;;4993718;28;20064;-80
2023/08/10 07:08:02;;;;;;;7.10;1.90;;;16.70;99.90;;;;;;4994609;28;20109;-80
2023/08/10 07:10:28;;;;;;;3.08;2.00;;;16.70;99.90;;;;;;4993900;28;20058;-79
2023/08/10 07:12:53;;;;;;;3.92;2.13;;;16.70;99.90;;;;;;4995158;28;20026;-79
2023/08/10 07:15:19;;;;;;;4.93;1.95;;;16.70;99.90;;;;;;4993206;28;20042;-80
2023/08/10 07:17:45;;;;;;;2.78;2.17;;;16.70;99.90;;;;;;4993924;28;20027;-80
2023/08/10 07:20:10;;;;;;;4.40;2.10;;;16.70;99.90;;;;;;4994741;28;20050;-79
2023/08/10 07:22:37;;;;;;;4.82;2.45;;;16.80;99.90;;;;;;4980694;28;20038;-82
2023/08/10 07:25:06;;;;;;;6.07;2.35;;;16.80;99.90;;;;;;4983293;28;20035;-81
2023/08/10 07:27:35;;;;;;;8.43;2.47;;;16.90;99.90;;;;;;4980610;28;20897;-78
2023/08/10 07:30:03;;;;;;;5.70;2.30;;;16.90;99.90;;;;;;4983513;28;20029;-79
2023/08/10 07:32:29;;;;;;;2.95;1.60;;;17.00;99.90;;;;;;4982677;28;20105;-78
2023/08/10 07:34:55;;;;;;;5.40;1.98;;;17.00;99.90;;;;;;4988712;28;20448;-79
2023/08/10 07:37:21;;;;;;;3.85;2.08;;;17.00;99.90;;;;;;4981599;28;20054;-78
2023/08/10 07:39:47;;;;;;;5.07;2.83;;;17.00;99.90;;;;;;4986116;28;20483;-78
2023/08/10 07:42:13;;;;;;;5.28;2.20;;;17.10;99.90;;;;;;4984763;28;20049;-77
2023/08/10 07:44:38;;;;;;;6.35;2.53;;;17.10;99.90;;;;;;4983521;28;20531;-80
2023/08/10 07:47:04;;;;;;;4.88;2.67;;;17.20;99.90;;;;;;4993758;28;20027;-79
2023/08/10 07:49:31;;;;;;;3.88;2.60;;;17.20;99.90;;;;;;4981406;28;20210;-79
2023/08/10 07:51:57;;;;;;;4.93;2.50;;;17.30;99.90;;;;;;4979368;28;20027;-79
2023/08/10 07:54:22;;;;;;;4.30;2.30;;;17.30;99.90;;;;;;4981610;28;20033;-78
2023/08/10 07:56:48;;;;;;;4.53;2.45;;;17.40;99.90;;;;;;4977404;28;20030;-78
2023/08/10 07:59:13;;;;;;;4.47;2.58;;;17.40;99.90;;;;;;4983725;28;20027;-77
2023/08/10 08:01:39;;;;;;;4.90;2.60;;;17.40;99.90;;;;;;4985352;28;20365;-80
2023/08/10 08:04:05;;;;;;;7.03;3.00;;;17.50;99.90;;;;;;4982495;28;20109;-79
2023/08/10 08:06:33;;;;;;;4.60;2.90;;;17.50;99.90;;;;;;4990401;28;20034;-78
2023/08/10 08:08:59;;;;;;;6.32;2.88;;;17.50;99.90;;;;;;4988963;28;20066;-79
2023/08/10 08:11:25;;;;;;;3.03;2.53;;;17.60;99.90;;;;;;4973078;28;20143;-79
2023/08/10 08:13:50;;;;;;;3.25;2.42;;;17.70;99.90;;;;;;4974287;28;20030;-79
2023/08/10 08:16:16;;;;;;;3.28;2.47;;;17.80;99.90;;;;;;4974409;28;20038;-78
2023/08/10 08:18:44;;;;;;;3.95;2.38;;;17.80;99.90;;;;;;4975045;28;20106;-79
2023/08/10 08:21:12;;;;;;;5.93;2.58;;;17.80;99.90;;;;;;4973334;28;20031;-80
2023/08/10 08:23:38;;;;;;;4.13;2.30;;;17.80;99.90;;;;;;4974648;28;20035;-79
2023/08/10 08:26:04;;;;;;;6.55;2.70;;;17.80;99.90;;;;;;4987919;28;20085;-80
2023/08/10 08:28:29;;;;;;;4.80;2.60;;;17.90;99.90;;;;;;4993989;28;20080;-80
2023/08/10 08:30:55;;;;;;;5.63;2.53;;;17.90;99.90;;;;;;4983447;28;20053;-80
2023/08/10 08:33:21;;;;;;;3.45;2.45;;;17.90;99.90;;;;;;4964758;28;20037;-80
2023/08/10 08:35:47;;;;;;;5.05;2.40;;;18.00;99.90;;;;;;4991183;28;20078;-80
2023/08/10 08:38:17;;;;;;;4.13;2.55;;;18.00;99.90;;;;;;4981318;28;20455;-81
2023/08/10 08:40:43;;;;;;;3.33;2.70;;;18.00;99.90;;;;;;4978304;28;20037;-81
2023/08/10 08:43:10;;;;;;;4.90;2.53;;;18.10;99.90;;;;;;4982753;28;20031;-81
2023/08/10 08:45:38;;;;;;;5.82;2.72;;;18.10;99.90;;;;;;4980544;28;20646;-82
2023/08/10 08:48:05;;;;;;;7.00;2.80;;;18.20;99.90;;;;;;4977304;28;20027;-81
2023/08/10 08:50:32;;;;;;;5.82;2.40;;;18.20;99.90;;;;;;4959842;28;20537;-80
2023/08/10 08:52:58;;;;;;;6.47;2.70;;;18.20;99.90;;;;;;4961331;28;20065;-81
2023/08/10 08:55:25;;;;;;;7.03;3.03;;;18.30;99.90;;;;;;4972332;28;20372;-81
2023/08/10 08:57:51;;;;;;;9.73;3.05;;;18.40;99.90;;;;;;4988000;28;20041;-80
2023/08/10 09:00:17;;;;;;;7.53;3.08;;;18.40;99.90;;;;;;4992000;28;20030;-79
2023/08/10 09:02:43;;;;;;;4.50;2.67;;;18.40;99.90;;;;;;4992110;28;20104;-80
2023/08/10 09:05:09;;;;;;;4.30;2.75;;;18.50;99.90;;;;;;4991289;28;20479;-80
2023/08/10 09:07:34;;;;;;;4.80;3.05;;;18.50;99.90;;;;;;4991471;28;20026;-80
2023/08/10 09:10:00;;;;;;;5.63;3.40;;;18.60;99.90;;;;;;4980418;28;20027;-78
2023/08/10 09:12:33;;;;;;;5.00;3.40;;;18.70;99.90;;;;;;4992991;28;20098;-80
2023/08/10 09:15:13;;;;;;;6.90;3.28;;;18.70;99.90;;;;;;4978825;28;20130;-81
2023/08/10 09:17:51;;;;;;;4.32;2.90;;;18.80;99.90;;;;;;4992423;28;20066;-81
2023/08/10 09:20:25;;;;;;;4.57;2.78;;;18.90;99.90;;;;;;4980643;28;20022;-80
2023/08/10 09:22:52;;;;;;;8.77;2.45;;;18.90;99.90;;;;;;4987047;28;20468;-80
2023/08/10 09:25:19;;;;;;;5.13;2.80;;;18.90;99.90;;;;;;4975706;28;20476;-81
2023/08/10 09:27:47;;;;;;;9.27;2.92;;;18.90;99.90;;;;;;4992524;28;20034;-81
2023/08/10 09:30:13;;;;;;;4.30;2.40;;;18.90;99.90;;;;;;4980193;28;20077;-80
2023/08/10 09:32:39;;;;;;;5.72;2.45;;;18.90;99.90;;;;;;4988599;28;20019;-81
2023/08/10 09:35:06;;;;;;;3.22;2.28;;;18.90;99.90;;;;;;4986641;28;20097;-81
2023/08/10 09:37:31;;;;;;;4.40;2.58;;;18.90;99.90;;;;;;4980467;28;20031;-81
2023/08/10 09:40:04;;;;;;;6.18;2.50;;;19.00;99.90;;;;;;4989611;28;20030;-80
2023/08/10 09:42:33;;;;;;;5.97;3.38;;;19.00;99.90;;;;;;4992499;28;20118;-80
2023/08/10 09:45:04;;;;;;;7.13;3.40;;;19.30;99.90;;;;;;4965254;28;20065;-81
2023/08/10 09:47:34;;;;;;;5.45;2.88;;;19.30;99.90;;;;;;4976713;28;20051;-81
2023/08/10 09:50:02;;;;;;;3.57;2.40;;;19.40;99.90;;;;;;4963434;28;20035;-80
2023/08/10 09:52:28;;;;;;;3.75;2.75;;;19.50;99.90;;;;;;4976838;28;20033;-81
2023/08/10 09:54:56;;;;;;;7.47;3.35;;;19.40;99.90;;;;;;4968745;28;20022;-81
2023/08/10 09:57:24;;;;;;;5.50;3.08;;;19.40;99.90;;;;;;4978669;28;20034;-80
2023/08/10 09:59:51;;;;;;;8.30;2.85;;;19.40;99.90;;;;;;4980022;28;20038;-81
2023/08/10 10:02:18;;;;;;;5.03;2.33;;;19.40;99.90;;;;;;4975672;28;20045;-79
2023/08/10 10:04:45;;;;;;;8.23;2.60;;;19.50;99.90;;;;;;4960048;28;20031;-81
2023/08/10 10:07:11;;;;;;;4.78;2.17;;;19.50;99.90;;;;;;4976777;28;20023;-81
2023/08/10 10:09:38;;;;;;;3.67;2.30;;;19.60;99.90;;;;;;4990997;28;20018;-81
2023/08/10 10:12:11;;;;;;;3.67;2.10;;;19.70;99.90;;;;;;4996576;28;20030;-81
2023/08/10 10:14:43;;;;;;;3.78;2.17;;;19.80;99.90;;;;;;4988617;28;20031;-81
2023/08/10 10:17:14;;;;;;;5.88;2.38;;;19.80;99.90;;;;;;4959256;28;20468;-81
2023/08/10 10:19:40;;;;;;;3.47;2.53;;;19.80;99.90;;;;;;4964888;28;20031;-81
2023/08/10 10:22:06;;;;;;;2.58;1.92;;;19.80;99.90;;;;;;4974984;28;20265;-81
2023/08/10 10:24:34;;;;;;;2.70;2.03;;;19.90;99.90;;;;;;4984957;28;20496;-81
2023/08/10 10:27:00;;;;;;;4.28;2.00;;;19.90;99.90;;;;;;4968608;28;20479;-82
2023/08/10 10:29:59;;;;;;;3.63;2.05;;;19.90;99.90;;;;;;4981443;28;20058;-82
2023/08/10 10:32:25;;;;;;;2.53;1.75;;;20.00;99.90;;;;;;4964192;28;20468;-82
2023/08/10 10:34:53;;;;;;;3.85;1.80;;;20.10;99.90;;;;;;4986532;28;20061;-83
2023/08/10 10:37:30;;;;;;;3.20;1.70;;;20.10;99.90;;;;;;4964616;28;20026;-81
2023/08/10 10:40:18;;;;;;;4.38;1.75;;;20.20;99.90;;;;;;4974109;28;20022;-82
2023/08/10 10:43:14;;;;;;;3.47;1.80;;;20.30;99.90;;;;;;4980000;28;20018;-81
2023/08/10 10:45:44;;;;;;;2.33;1.35;;;20.30;99.90;;;;;;4988750;28;20073;-82
2023/08/10 10:48:11;;;;;;;3.85;2.50;;;20.30;99.90;;;;;;4976162;28;20033;-82
2023/08/10 10:50:36;;;;;;;5.95;3.08;;;20.30;99.90;;;;;;4981972;28;20126;-80
2023/08/10 10:53:11;;;;;;;5.30;3.60;;;20.40;99.90;;;;;;4978322;28;20464;-82
2023/08/10 10:55:43;;;;;;;4.13;2.40;;;20.40;99.90;;;;;;4979723;28;20468;-83
2023/08/10 10:58:12;;;;;;;3.40;1.58;;;20.50;99.90;;;;;;4974034;28;20034;-83
2023/08/10 11:00:38;;;;;;;2.65;1.48;;;20.50;99.90;;;;;;4970644;28;20031;-83
2023/08/10 11:03:06;;;;;;;2.80;1.50;;;20.60;99.90;;;;;;4984720;28;20030;-82
2023/08/10 11:05:32;;;;;;;4.47;1.80;;;20.50;99.90;;;;;;4979056;28;20129;-82
2023/08/10 11:08:06;;;;;;;4.70;1.52;;;20.70;99.90;;;;;;4992390;28;20502;-83
2023/08/10 11:10:35;;;;;;;3.45;1.42;;;20.70;99.90;;;;;;4968788;28;20395;-82
2023/08/10 11:13:03;;;;;;;4.20;1.80;;;20.80;99.90;;;;;;4984843;28;20030;-83
2023/08/10 11:15:28;;;;;;;3.08;1.42;;;20.90;99.90;;;;;;4971357;28;20038;-83
2023/08/10 11:17:54;;;;;;;5.43;1.92;;;20.90;99.90;;;;;;4976464;28;20089;-83
2023/08/10 11:20:21;;;;;;;2.35;1.45;;;20.90;99.90;;;;;;4986493;28;20379;-83
2023/08/10 11:22:55;;;;;;;1.77;1.67;;;20.90;99.90;;;;;;4985476;28;20058;-83
2023/08/10 11:25:23;;;;;;;3.22;1.60;;;21.00;99.90;;;;;;4986126;28;20049;-83
2023/08/10 11:27:51;;;;;;;3.63;1.80;;;21.10;99.90;;;;;;4977719;28;20496;-83
2023/08/10 11:30:19;;;;;;;7.30;1.73;;;21.10;99.90;;;;;;4988597;28;20058;-80
2023/08/10 11:32:49;;;;;;;4.03;1.70;;;21.10;99.90;;;;;;4981863;28;20526;-83
2023/08/10 11:35:19;;;;;;;6.60;1.50;;;21.20;99.90;;;;;;4988010;28;20038;-83
2023/08/10 11:37:45;;;;;;;5.88;1.42;;;21.20;99.90;;;;;;4977091;28;20023;-83
2023/08/10 11:40:11;;;;;;;3.72;1.75;;;21.20;99.90;;;;;;4990540;28;20483;-83
2023/08/10 11:42:39;;;;;;;3.08;1.75;;;21.30;99.90;;;;;;4965884;28;20487;-83
2023/08/10 11:45:16;;;;;;;2.63;1.50;;;21.30;99.90;;;;;;4982506;28;20122;-84
2023/08/10 11:47:45;;;;;;;3.78;1.50;;;21.40;99.90;;;;;;4990291;28;20030;-83
2023/08/10 11:50:13;;;;;;;2.17;1.58;;;21.40;99.90;;;;;;4960837;28;20034;-81
2023/08/10 11:52:39;;;;;;;1.80;1.20;;;21.50;99.90;;;;;;4969224;28;20023;-81
2023/08/10 11:55:13;;;;;;;2.55;1.20;;;21.50;99.90;;;;;;4967579;28;20045;-81
2023/08/10 11:57:46;;;;;;;2.53;1.73;;;21.50;99.90;;;;;;4993736;28;20511;-81
2023/08/10 12:00:30;;;;;;;2.92;1.50;;;21.50;99.90;;;;;;4979811;28;20023;-81
2023/08/10 12:03:02;;;;;;;1.80;1.38;;;21.60;99.90;;;;;;4982953;28;20418;-81
2023/08/10 12:05:49;;;;;;;3.95;1.58;;;21.60;99.90;;;;;;4989389;28;20034;-80
2023/08/10 12:08:29;;;;;;;2.58;1.30;;;21.70;99.90;;;;;;4977194;28;20442;-80
2023/08/10 12:11:02;;;;;;;2.55;1.33;;;21.80;99.90;;;;;;4971663;28;20027;-81
2023/08/10 12:13:28;;;;;;;1.63;1.20;;;21.90;99.90;;;;;;4972763;28;20468;-81
2023/08/10 12:15:54;;;;;;;2.17;1.30;;;21.90;99.90;;;;;;4973317;28;20034;-81
2023/08/10 12:18:21;;;;;;;1.42;1.17;;;22.00;99.90;;;;;;4977367;28;20032;-80
2023/08/10 12:20:49;;;;;;;2.65;1.20;;;22.10;99.90;;;;;;4984213;28;20023;-81
2023/08/10 12:23:15;;;;;;;3.00;1.33;;;22.30;99.90;;;;;;4986252;28;20030;-80
2023/08/10 12:25:44;;;;;;;2.58;1.27;;;22.40;99.90;;;;;;4992465;28;20049;-81
2023/08/10 12:28:10;;;;;;;1.92;1.35;;;22.50;99.90;;;;;;4990146;28;20030;-81
2023/08/10 12:30:36;;;;;;;1.60;1.10;;;22.60;99.90;;;;;;4982508;28;20078;-81
2023/08/10 12:33:03;;;;;;;1.75;1.48;;;22.70;99.90;;;;;;4986744;28;20022;-81
2023/08/10 12:35:29;;;;;;;2.83;1.27;;;22.80;99.90;;;;;;4994930;28;20137;-81
2023/08/10 12:37:55;;;;;;;1.95;1.30;;;23.00;99.90;;;;;;4979703;28;20031;-81
2023/08/10 12:40:21;;;;;;;4.63;1.60;;;23.10;99.90;;;;;;4980262;28;20045;-81
2023/08/10 12:42:47;;;;;;;3.40;1.50;;;23.30;99.90;;;;;;4984793;28;20045;-81
2023/08/10 12:45:14;;;;;;;2.20;1.30;;;23.40;99.90;;;;;;4990877;28;20050;-83
2023/08/10 12:47:41;;;;;;;2.30;1.30;;;23.50;99.90;;;;;;4981015;28;20121;-81